Time;durP1;ratioP1;P1;durP2;ratioP2;P2;SDS_P1;SDS_P2;PMS_P1;PMS_P2;Temp;Humidity;BMP_temperature;BMP_pressure;BME280_temperature;BME280_humidity;BME280_pressure;Samples;Min_cycle;Max_cycle;Signal;HPM_P1;HPM_P2
2022/10/13 00:01:25;;;;;;;12.00;6.10;;;10.00;97.70;;;;;;5099151;28;20024;-70
2022/10/13 00:03:52;;;;;;;9.63;5.10;;;10.00;97.70;;;;;;5091907;28;20036;-70
2022/10/13 00:06:22;;;;;;;10.90;6.22;;;10.00;97.70;;;;;;5104132;28;20123;-70
2022/10/13 00:08:48;;;;;;;14.07;5.95;;;9.90;97.70;;;;;;5102369;28;20028;-70
2022/10/13 00:11:16;;;;;;;16.25;6.07;;;10.00;97.80;;;;;;5092925;28;20073;-70
2022/10/13 00:13:43;;;;;;;10.95;6.25;;;10.00;97.80;;;;;;5091152;28;20054;-70
2022/10/13 00:16:10;;;;;;;10.80;6.28;;;9.90;97.80;;;;;;5103569;28;20035;-69
2022/10/13 00:18:36;;;;;;;12.15;6.07;;;9.90;97.90;;;;;;5096588;28;20020;-70
2022/10/13 00:21:07;;;;;;;14.18;6.10;;;9.90;97.90;;;;;;5100826;28;20023;-71
2022/10/13 00:23:34;;;;;;;12.13;5.68;;;9.90;97.90;;;;;;5098248;28;20038;-70
2022/10/13 00:26:03;;;;;;;14.93;5.88;;;9.80;97.90;;;;;;5093128;28;20023;-70
2022/10/13 00:28:29;;;;;;;10.82;5.63;;;9.80;97.90;;;;;;5092730;28;20028;-70
2022/10/13 00:30:55;;;;;;;11.32;5.35;;;9.80;97.90;;;;;;5092367;28;20129;-70
2022/10/13 00:33:21;;;;;;;10.05;5.47;;;9.80;98.00;;;;;;5092371;28;20040;-71
2022/10/13 00:35:47;;;;;;;11.13;5.43;;;9.80;98.00;;;;;;5098489;28;20024;-71
2022/10/13 00:38:17;;;;;;;12.10;6.10;;;9.80;98.10;;;;;;5094721;28;20032;-70
2022/10/13 00:41:03;;;;;;;11.13;5.43;;;9.80;98.10;;;;;;5098757;28;20067;-70
2022/10/13 00:43:47;;;;;;;;;;;9.80;98.10;;;;;;5092629;28;20036;-70
2022/10/13 00:46:14;;;;;;;10.05;6.00;;;9.80;97.80;;;;;;5100509;28;19907;-69
2022/10/13 00:48:40;;;;;;;15.40;5.97;;;9.70;97.90;;;;;;5092195;28;20028;-69
2022/10/13 00:51:07;;;;;;;10.10;6.30;;;9.70;98.00;;;;;;5099489;28;20397;-69
2022/10/13 00:53:35;;;;;;;11.15;5.70;;;9.70;98.00;;;;;;5091940;28;20032;-70
2022/10/13 00:56:02;;;;;;;12.90;5.57;;;9.70;98.10;;;;;;5100829;28;20085;-70
2022/10/13 00:58:30;;;;;;;13.98;5.75;;;9.60;98.10;;;;;;5092900;28;20085;-70
2022/10/13 01:00:57;;;;;;;15.43;6.68;;;9.60;98.20;;;;;;5105326;28;20031;-69
2022/10/13 01:03:24;;;;;;;11.55;5.38;;;9.60;98.20;;;;;;5096227;28;20475;-70
2022/10/13 01:05:52;;;;;;;7.80;5.05;;;9.60;98.20;;;;;;5093825;28;20028;-70
2022/10/13 01:08:19;;;;;;;11.70;5.80;;;9.60;98.30;;;;;;5085621;28;20027;-69
2022/10/13 01:10:59;;;;;;;14.82;6.35;;;9.60;98.30;;;;;;5090595;28;20032;-69
2022/10/13 01:13:40;;;;;;;10.55;6.07;;;9.60;98.30;;;;;;5090081;28;20050;-69
2022/10/13 01:16:31;;;;;;;10.98;6.65;;;9.60;98.30;;;;;;5089801;28;20036;-69
2022/10/13 01:19:06;;;;;;;9.07;5.75;;;9.50;98.30;;;;;;5071642;28;20021;-69
2022/10/13 01:22:07;;;;;;;9.73;5.88;;;9.50;98.30;;;;;;5086565;28;20101;-69
2022/10/13 01:24:43;;;;;;;12.27;6.00;;;9.50;98.40;;;;;;5093161;28;20028;-69
2022/10/13 01:27:31;;;;;;;14.98;6.32;;;9.50;98.40;;;;;;5093776;28;20024;-69
2022/10/13 01:30:06;;;;;;;9.68;5.57;;;9.50;98.40;;;;;;5094410;28;20615;-69
2022/10/13 01:32:57;;;;;;;8.48;5.65;;;9.50;98.40;;;;;;5091630;28;20055;-69
2022/10/13 01:35:56;;;;;;;12.35;5.88;;;9.50;98.40;;;;;;5090183;28;20503;-70
2022/10/13 01:38:53;;;;;;;11.88;6.30;;;9.50;98.40;;;;;;5109018;28;20043;-70
2022/10/13 01:41:26;;;;;;;12.85;6.13;;;9.40;98.40;;;;;;5095478;28;20055;-69
2022/10/13 01:44:01;;;;;;;13.82;6.32;;;9.40;98.50;;;;;;5105010;28;20356;-70
2022/10/13 01:46:38;;;;;;;12.10;6.20;;;9.40;98.60;;;;;;5087366;28;20035;-70
2022/10/13 01:49:10;;;;;;;13.35;6.15;;;9.40;98.60;;;;;;5090986;28;20419;-69
2022/10/13 01:51:37;;;;;;;9.55;5.53;;;9.40;98.60;;;;;;5081470;28;20043;-69
2022/10/13 01:54:03;;;;;;;10.05;5.45;;;9.40;98.70;;;;;;5090443;28;20097;-70
2022/10/13 01:56:29;;;;;;;11.00;5.78;;;9.40;98.70;;;;;;5091268;28;20024;-70
2022/10/13 01:58:57;;;;;;;10.18;5.85;;;9.30;98.70;;;;;;5092898;28;20024;-70
2022/10/13 02:01:58;;;;;;;13.35;5.35;;;9.30;99.00;;;;;;5103202;28;20636;-70
2022/10/13 02:04:28;;;;;;;13.05;5.95;;;9.30;98.80;;;;;;5080893;28;20364;-70
2022/10/13 02:07:16;;;;;;;12.65;6.20;;;9.30;98.80;;;;;;5104927;28;20131;-70
2022/10/13 02:10:02;;;;;;;11.15;5.88;;;9.30;98.80;;;;;;5099593;28;20375;-70
2022/10/13 02:12:47;;;;;;;11.18;5.35;;;9.30;98.90;;;;;;5096426;28;20027;-69
2022/10/13 02:15:18;;;;;;;12.23;5.97;;;9.30;99.10;;;;;;5096268;28;20404;-70
2022/10/13 02:17:45;;;;;;;11.60;5.72;;;9.30;98.90;;;;;;5107723;28;20028;-70
2022/10/13 02:20:11;;;;;;;15.10;5.72;;;9.40;99.00;;;;;;5094727;28;20205;-70
2022/10/13 02:22:43;;;;;;;9.80;5.40;;;9.40;99.00;;;;;;5102643;28;20080;-70
2022/10/13 02:25:10;;;;;;;9.13;5.60;;;9.40;99.00;;;;;;5090640;28;20047;-70
2022/10/13 02:27:36;;;;;;;11.48;5.97;;;9.40;99.00;;;;;;5109220;28;20478;-70
2022/10/13 02:30:02;;;;;;;11.48;5.63;;;9.40;98.90;;;;;;5092285;28;20042;-69
2022/10/13 02:32:28;;;;;;;9.70;5.63;;;9.40;99.20;;;;;;5100897;28;20579;-69
2022/10/13 02:34:53;;;;;;;14.20;6.00;;;9.40;99.10;;;;;;5093156;28;20044;-69
2022/10/13 02:37:19;;;;;;;11.30;5.80;;;9.40;98.90;;;;;;5094407;28;20052;-69
2022/10/13 02:39:44;;;;;;;10.68;6.18;;;9.40;98.90;;;;;;5097832;28;20027;-69
2022/10/13 02:42:10;;;;;;;11.85;5.82;;;9.40;98.90;;;;;;5097633;28;20046;-70
2022/10/13 02:44:36;;;;;;;11.93;6.30;;;9.30;99.00;;;;;;5094394;28;20046;-69
2022/10/13 02:47:01;;;;;;;10.73;5.18;;;9.40;99.00;;;;;;5093739;28;20035;-69
2022/10/13 02:49:28;;;;;;;10.82;5.60;;;9.30;99.00;;;;;;5098113;28;20024;-69
2022/10/13 02:51:53;;;;;;;8.57;6.10;;;9.30;99.00;;;;;;5095055;28;20066;-69
2022/10/13 02:54:19;;;;;;;10.85;6.10;;;9.30;99.10;;;;;;5094830;28;20036;-68
2022/10/13 02:56:45;;;;;;;10.35;6.18;;;9.30;99.00;;;;;;5094495;28;20020;-68
2022/10/13 02:59:11;;;;;;;10.57;5.78;;;9.20;99.00;;;;;;5093531;28;20043;-68
2022/10/13 03:01:40;;;;;;;10.93;5.47;;;9.20;99.00;;;;;;5110760;28;20449;-68
2022/10/13 03:04:06;;;;;;;8.88;5.60;;;9.20;99.10;;;;;;5099842;28;20562;-70
2022/10/13 03:06:32;;;;;;;11.90;5.78;;;9.20;99.10;;;;;;5095002;28;20020;-71
2022/10/13 03:08:58;;;;;;;12.25;6.25;;;9.20;99.20;;;;;;5093427;28;20115;-70
2022/10/13 03:11:25;;;;;;;10.13;5.20;;;9.10;99.10;;;;;;5094803;28;20107;-70
2022/10/13 03:13:51;;;;;;;9.25;5.25;;;9.10;99.20;;;;;;5092861;28;20035;-71
2022/10/13 03:16:17;;;;;;;11.38;6.32;;;9.10;99.20;;;;;;5094265;28;20101;-71
2022/10/13 03:18:42;;;;;;;11.13;6.70;;;9.10;99.20;;;;;;5090650;28;20065;-71
2022/10/13 03:21:09;;;;;;;9.70;6.05;;;9.10;99.20;;;;;;5100447;28;20024;-71
2022/10/13 03:23:36;;;;;;;7.97;5.10;;;9.10;99.40;;;;;;5097814;28;20085;-71
2022/10/13 03:26:03;;;;;;;12.57;5.80;;;9.00;99.20;;;;;;5094014;28;20024;-71
2022/10/13 03:28:29;;;;;;;12.73;5.95;;;9.00;99.30;;;;;;5092619;28;20028;-71
2022/10/13 03:31:06;;;;;;;12.43;5.95;;;9.00;99.30;;;;;;5094254;28;20031;-71
2022/10/13 03:33:32;;;;;;;11.13;6.57;;;9.00;99.50;;;;;;5093746;28;20036;-71
2022/10/13 03:36:03;;;;;;;10.35;5.63;;;8.90;99.30;;;;;;5093971;28;20024;-71
2022/10/13 03:38:30;;;;;;;9.95;5.85;;;9.00;99.40;;;;;;5091770;28;20024;-70
2022/10/13 03:40:56;;;;;;;10.70;5.72;;;8.90;99.30;;;;;;5094038;28;20733;-71
2022/10/13 03:43:22;;;;;;;12.68;6.47;;;8.90;99.40;;;;;;5092325;28;20106;-71
2022/10/13 03:45:59;;;;;;;13.70;6.25;;;8.90;99.40;;;;;;5097650;28;20127;-71
2022/10/13 03:48:26;;;;;;;10.80;6.45;;;8.90;99.40;;;;;;5111034;28;20026;-71
2022/10/13 03:50:52;;;;;;;10.65;5.70;;;8.90;99.40;;;;;;5107269;28;20028;-71
2022/10/13 03:53:18;;;;;;;12.20;5.53;;;8.90;99.40;;;;;;5111381;28;20123;-71
2022/10/13 03:55:51;;;;;;;14.85;6.78;;;8.90;99.40;;;;;;5114450;28;20020;-71
2022/10/13 03:58:18;;;;;;;15.30;6.30;;;8.90;99.40;;;;;;5106521;28;20027;-71
2022/10/13 04:00:44;;;;;;;12.27;6.55;;;8.90;99.40;;;;;;5097712;28;20035;-68
2022/10/13 04:03:10;;;;;;;8.43;6.00;;;8.90;99.50;;;;;;5099833;28;20038;-71
2022/10/13 04:05:35;;;;;;;9.32;6.47;;;8.90;99.50;;;;;;5104213;28;20035;-77
2022/10/13 04:08:01;;;;;;;10.85;5.68;;;8.80;99.50;;;;;;5091866;28;20028;-75
2022/10/13 04:10:26;;;;;;;9.18;6.43;;;8.90;99.60;;;;;;5093366;28;20017;-75
2022/10/13 04:12:52;;;;;;;10.65;6.03;;;8.90;99.60;;;;;;5090705;28;20070;-74
2022/10/13 04:15:18;;;;;;;10.18;6.47;;;8.90;99.70;;;;;;5092544;28;20040;-74
2022/10/13 04:17:44;;;;;;;13.25;6.15;;;8.90;99.70;;;;;;5092169;28;20443;-73
2022/10/13 04:20:10;;;;;;;10.80;6.07;;;8.90;99.70;;;;;;5097685;28;20023;-74
2022/10/13 04:22:36;;;;;;;12.15;6.25;;;8.90;99.60;;;;;;5095843;28;20038;-73
2022/10/13 04:25:02;;;;;;;11.88;6.20;;;8.90;99.60;;;;;;5092893;28;20111;-73
2022/10/13 04:27:27;;;;;;;10.73;6.57;;;8.90;99.70;;;;;;5093073;28;20114;-73
2022/10/13 04:29:53;;;;;;;11.90;6.07;;;8.90;99.70;;;;;;5092641;28;20077;-72
2022/10/13 04:32:18;;;;;;;7.90;5.38;;;8.90;99.70;;;;;;5091370;28;20051;-72
2022/10/13 04:34:44;;;;;;;9.95;6.28;;;8.90;99.70;;;;;;5093328;28;20043;-72
2022/10/13 04:37:10;;;;;;;10.43;6.53;;;8.90;99.70;;;;;;5098893;28;20074;-72
2022/10/13 04:39:35;;;;;;;13.70;5.60;;;8.90;99.70;;;;;;5124914;28;20039;-72
2022/10/13 04:42:02;;;;;;;11.75;6.20;;;8.90;99.70;;;;;;5097404;28;20031;-71
2022/10/13 04:44:28;;;;;;;8.73;5.72;;;8.90;99.70;;;;;;5075612;28;20097;-72
2022/10/13 04:46:54;;;;;;;14.05;6.72;;;8.90;99.70;;;;;;5092284;28;20075;-72
2022/10/13 04:49:20;;;;;;;10.20;6.85;;;8.90;99.80;;;;;;5090310;28;20499;-72
2022/10/13 04:51:45;;;;;;;11.63;6.28;;;8.90;99.80;;;;;;5092993;28;20096;-72
2022/10/13 04:54:11;;;;;;;11.48;7.18;;;8.90;99.80;;;;;;5095729;28;20032;-73
2022/10/13 04:56:36;;;;;;;9.07;5.90;;;8.90;99.80;;;;;;5091980;28;20052;-73
2022/10/13 04:59:04;;;;;;;11.80;6.20;;;9.00;99.80;;;;;;5104709;28;20042;-73
2022/10/13 05:01:31;;;;;;;10.63;5.70;;;9.00;99.80;;;;;;5090291;28;20034;-72
2022/10/13 05:03:59;;;;;;;12.02;6.45;;;9.00;99.90;;;;;;5101245;28;20028;-72
2022/10/13 05:06:28;;;;;;;14.50;5.85;;;9.00;99.90;;;;;;5096088;28;20028;-72
2022/10/13 05:08:55;;;;;;;10.95;6.50;;;9.00;99.90;;;;;;5107136;28;20466;-72
2022/10/13 05:11:21;;;;;;;8.60;5.75;;;9.00;99.90;;;;;;5091285;28;20380;-72
2022/10/13 05:13:47;;;;;;;10.68;6.80;;;9.10;99.90;;;;;;5089686;28;20516;-72
2022/10/13 05:16:16;;;;;;;8.82;6.20;;;9.10;99.90;;;;;;5091341;28;20357;-72
2022/10/13 05:18:42;;;;;;;12.70;6.07;;;9.10;99.90;;;;;;5100240;28;20393;-72
2022/10/13 05:21:13;;;;;;;11.73;6.82;;;9.10;99.90;;;;;;5095171;28;20032;-73
2022/10/13 05:23:39;;;;;;;10.63;6.68;;;9.10;99.90;;;;;;5100774;28;20107;-72
2022/10/13 05:26:11;;;;;;;11.27;6.47;;;9.10;99.90;;;;;;5085107;28;20067;-72
2022/10/13 05:28:37;;;;;;;13.40;6.43;;;9.20;99.90;;;;;;5090639;28;20055;-73
2022/10/13 05:31:11;;;;;;;13.18;6.85;;;9.20;99.90;;;;;;5097547;28;20398;-73
2022/10/13 05:33:38;;;;;;;12.75;6.47;;;9.20;99.90;;;;;;5100175;28;20032;-73
2022/10/13 05:36:06;;;;;;;12.80;6.78;;;9.20;99.90;;;;;;5098929;28;20082;-74
2022/10/13 05:38:31;;;;;;;12.57;6.68;;;9.20;99.90;;;;;;5090772;28;20024;-74
2022/10/13 05:41:05;;;;;;;9.75;7.07;;;9.20;99.90;;;;;;5091573;28;20070;-74
2022/10/13 05:43:32;;;;;;;15.60;7.43;;;9.20;99.90;;;;;;5097647;28;20397;-74
2022/10/13 05:45:59;;;;;;;12.52;6.72;;;9.20;99.90;;;;;;5099788;28;20024;-75
2022/10/13 05:48:25;;;;;;;17.00;7.78;;;9.30;99.90;;;;;;5097947;28;20027;-75
2022/10/13 05:50:51;;;;;;;15.95;6.78;;;9.20;99.90;;;;;;5093211;28;20028;-74
2022/10/13 05:53:18;;;;;;;11.40;7.10;;;9.30;99.90;;;;;;5096074;28;20103;-74
2022/10/13 05:55:44;;;;;;;13.48;7.80;;;9.30;99.90;;;;;;5089707;28;20487;-74
2022/10/13 05:58:10;;;;;;;13.43;7.93;;;9.30;99.90;;;;;;5094253;28;20066;-73
2022/10/13 06:00:36;;;;;;;13.38;7.10;;;9.40;99.90;;;;;;5092457;28;20620;-71
2022/10/13 06:03:08;;;;;;;16.60;7.07;;;9.40;99.90;;;;;;5086288;28;20062;-70
2022/10/13 06:05:34;;;;;;;13.85;7.10;;;9.40;99.90;;;;;;5088328;28;20028;-73
2022/10/13 06:08:00;;;;;;;12.52;7.50;;;9.40;99.90;;;;;;5088573;28;22289;-71
2022/10/13 06:10:26;;;;;;;12.20;7.25;;;9.50;99.90;;;;;;5082538;28;20114;-71
2022/10/13 06:12:55;;;;;;;14.07;7.75;;;9.50;99.90;;;;;;5087457;28;20114;-71
2022/10/13 06:15:20;;;;;;;12.07;7.22;;;9.50;99.90;;;;;;5103901;28;20063;-71
2022/10/13 06:17:46;;;;;;;11.35;7.38;;;9.50;99.90;;;;;;5111033;28;20047;-72
2022/10/13 06:20:12;;;;;;;12.77;7.93;;;9.60;99.90;;;;;;5109451;28;20028;-70
2022/10/13 06:22:38;;;;;;;13.65;7.13;;;9.60;99.90;;;;;;5109368;28;20024;-70
2022/10/13 06:25:06;;;;;;;14.02;7.55;;;9.60;99.90;;;;;;5114544;28;20050;-70
2022/10/13 06:27:31;;;;;;;16.17;8.52;;;9.70;99.90;;;;;;5109872;28;20048;-70
2022/10/13 06:29:57;;;;;;;13.13;7.57;;;9.70;99.90;;;;;;5107329;28;20036;-70
2022/10/13 06:32:23;;;;;;;13.02;7.68;;;9.70;99.90;;;;;;5098349;28;20041;-70
2022/10/13 06:34:48;;;;;;;13.32;8.60;;;9.70;99.90;;;;;;5116779;28;20091;-70
2022/10/13 06:37:14;;;;;;;14.10;8.30;;;9.80;99.90;;;;;;5101756;28;20073;-70
2022/10/13 06:39:39;;;;;;;15.90;8.25;;;9.80;99.90;;;;;;5109714;28;20045;-70
2022/10/13 06:42:05;;;;;;;14.65;7.63;;;9.80;99.90;;;;;;5103626;28;20312;-71
2022/10/13 06:44:31;;;;;;;15.55;7.43;;;9.80;99.90;;;;;;5125476;28;20087;-71
2022/10/13 06:46:57;;;;;;;14.05;8.57;;;9.90;99.90;;;;;;5114845;28;20077;-70
2022/10/13 06:49:23;;;;;;;17.40;7.60;;;9.90;99.90;;;;;;5111890;28;20065;-70
2022/10/13 06:51:49;;;;;;;17.00;8.88;;;9.90;99.90;;;;;;5131355;28;20020;-69
2022/10/13 06:54:15;;;;;;;15.60;8.00;;;10.00;99.90;;;;;;5116789;28;20040;-70
2022/10/13 06:56:47;;;;;;;11.60;8.05;;;10.00;99.90;;;;;;5094839;28;20418;-70
2022/10/13 06:59:12;;;;;;;15.98;8.35;;;10.10;99.90;;;;;;5116006;28;20023;-69
2022/10/13 07:01:39;;;;;;;14.80;8.55;;;10.10;99.90;;;;;;5111866;28;20063;-70
2022/10/13 07:04:05;;;;;;;20.60;9.75;;;10.20;99.90;;;;;;5099450;28;20469;-70
2022/10/13 07:06:30;;;;;;;16.83;8.77;;;10.20;99.90;;;;;;5095753;28;20471;-70
2022/10/13 07:08:56;;;;;;;18.05;8.77;;;10.30;99.90;;;;;;5098387;28;20029;-69
2022/10/13 07:11:23;;;;;;;19.30;8.18;;;10.30;99.90;;;;;;5093846;28;20044;-69
2022/10/13 07:13:49;;;;;;;17.70;9.27;;;10.40;99.90;;;;;;5093700;28;20119;-70
2022/10/13 07:16:15;;;;;;;19.33;9.63;;;10.40;99.90;;;;;;5094810;28;20115;-70
2022/10/13 07:18:45;;;;;;;18.63;9.82;;;10.50;99.90;;;;;;5101448;28;20031;-71
2022/10/13 07:21:11;;;;;;;19.65;9.57;;;10.50;99.90;;;;;;5094096;28;20487;-71
2022/10/13 07:23:36;;;;;;;19.73;10.75;;;10.60;99.90;;;;;;5094356;28;20104;-70
2022/10/13 07:26:10;;;;;;;15.68;8.98;;;10.70;99.90;;;;;;5091048;28;20123;-70
2022/10/13 07:28:35;;;;;;;18.70;9.60;;;10.70;99.90;;;;;;5084207;28;20036;-69
2022/10/13 07:31:12;;;;;;;16.23;9.55;;;10.80;99.90;;;;;;5093948;28;20048;-70
2022/10/13 07:33:39;;;;;;;19.15;9.95;;;10.80;99.90;;;;;;5099511;28;20376;-70
2022/10/13 07:36:05;;;;;;;14.35;9.70;;;10.90;99.90;;;;;;5096834;28;20031;-70
2022/10/13 07:38:31;;;;;;;17.02;10.00;;;10.90;99.90;;;;;;5102120;28;20035;-70
2022/10/13 07:41:00;;;;;;;15.60;10.07;;;11.00;99.90;;;;;;5096193;28;20026;-70
2022/10/13 07:43:25;;;;;;;17.45;11.13;;;11.10;99.90;;;;;;5105462;28;20483;-70
2022/10/13 07:45:51;;;;;;;15.63;9.55;;;11.20;99.90;;;;;;5093624;28;20073;-69
2022/10/13 07:48:17;;;;;;;17.40;10.35;;;11.20;99.90;;;;;;5093337;28;20024;-70
2022/10/13 07:50:42;;;;;;;16.13;9.52;;;11.20;99.90;;;;;;5094150;28;20095;-70
2022/10/13 07:53:08;;;;;;;17.73;10.13;;;11.30;99.90;;;;;;5104010;28;20356;-71
2022/10/13 07:55:34;;;;;;;14.60;9.70;;;11.40;99.90;;;;;;5108247;28;20432;-70
2022/10/13 07:58:03;;;;;;;19.42;10.55;;;11.50;99.90;;;;;;5098746;28;20028;-70
2022/10/13 08:00:30;;;;;;;17.42;9.40;;;11.60;99.90;;;;;;5099935;28;20028;-70
2022/10/13 08:02:56;;;;;;;16.08;9.68;;;11.60;99.90;;;;;;5094887;28;20023;-70
2022/10/13 08:05:24;;;;;;;19.67;10.38;;;11.70;99.90;;;;;;5092747;28;20028;-70
2022/10/13 08:07:50;;;;;;;13.73;9.80;;;11.80;99.90;;;;;;5075113;28;20055;-71
2022/10/13 08:10:15;;;;;;;15.75;9.55;;;11.90;99.90;;;;;;5087966;28;20044;-73
2022/10/13 08:12:41;;;;;;;15.00;10.30;;;12.00;99.90;;;;;;5096063;28;20097;-71
2022/10/13 08:15:08;;;;;;;16.20;10.23;;;12.10;99.90;;;;;;5093416;28;20123;-75
2022/10/13 08:17:33;;;;;;;20.55;10.88;;;12.10;99.90;;;;;;5090999;28;20417;-75
2022/10/13 08:19:59;;;;;;;15.88;10.20;;;12.30;99.90;;;;;;5091384;28;20047;-74
2022/10/13 08:22:26;;;;;;;16.67;10.35;;;12.40;99.90;;;;;;5093687;28;20055;-75
2022/10/13 08:24:51;;;;;;;18.95;10.23;;;12.50;99.90;;;;;;5086162;28;20048;-72
2022/10/13 08:27:23;;;;;;;16.05;9.40;;;12.70;99.90;;;;;;5093360;28;20074;-73
2022/10/13 08:29:49;;;;;;;18.25;10.15;;;12.80;99.70;;;;;;5093655;28;20028;-72
2022/10/13 08:32:15;;;;;;;16.70;10.98;;;12.90;99.70;;;;;;5092855;28;20147;-72
2022/10/13 08:34:41;;;;;;;15.50;10.27;;;13.10;99.60;;;;;;5092302;28;20052;-71
2022/10/13 08:37:13;;;;;;;16.92;10.00;;;13.20;99.60;;;;;;5090456;28;20028;-71
2022/10/13 08:39:39;;;;;;;15.20;10.43;;;13.30;99.40;;;;;;5093196;28;20028;-71
2022/10/13 08:42:17;;;;;;;15.77;10.57;;;13.40;99.50;;;;;;5090794;28;20016;-71
2022/10/13 08:44:47;;;;;;;15.88;10.32;;;13.50;99.40;;;;;;5100040;28;20039;-71
2022/10/13 08:47:37;;;;;;;18.98;10.73;;;13.60;99.40;;;;;;5085303;28;20029;-73
2022/10/13 08:50:11;;;;;;;15.65;9.63;;;13.70;99.30;;;;;;5092071;28;20051;-72
2022/10/13 08:52:54;;;;;;;16.57;10.03;;;13.80;99.20;;;;;;5091254;28;20064;-72
2022/10/13 08:55:25;;;;;;;18.05;11.35;;;13.90;99.10;;;;;;5082717;28;20059;-73
2022/10/13 08:57:51;;;;;;;16.73;10.18;;;14.00;99.00;;;;;;5091076;28;20035;-73
2022/10/13 09:00:18;;;;;;;14.95;10.43;;;14.10;98.90;;;;;;5095325;28;20039;-75
2022/10/13 09:02:44;;;;;;;14.63;10.18;;;14.20;98.80;;;;;;5091151;28;20020;-74
2022/10/13 09:05:17;;;;;;;12.25;8.90;;;14.30;98.90;;;;;;5094215;28;20038;-73
2022/10/13 09:07:45;;;;;;;14.45;10.00;;;14.30;98.70;;;;;;5082550;28;20039;-75
2022/10/13 09:10:11;;;;;;;21.25;11.45;;;14.40;98.60;;;;;;5087254;28;20111;-75
2022/10/13 09:12:36;;;;;;;17.45;11.27;;;14.50;98.50;;;;;;5091500;28;20099;-71
2022/10/13 09:15:08;;;;;;;13.73;10.57;;;14.60;98.50;;;;;;5091576;28;20032;-73
2022/10/13 09:17:35;;;;;;;15.45;10.50;;;14.70;98.40;;;;;;5091835;28;20035;-72
2022/10/13 09:20:03;;;;;;;14.80;10.30;;;14.70;98.50;;;;;;5095226;28;20032;-73
2022/10/13 09:22:31;;;;;;;15.52;10.05;;;14.90;98.40;;;;;;5102282;28;20024;-72
2022/10/13 09:25:11;;;;;;;16.73;10.40;;;14.90;98.30;;;;;;5087678;28;20059;-72
2022/10/13 09:27:50;;;;;;;15.20;9.65;;;15.10;98.20;;;;;;5089110;28;20035;-72
2022/10/13 09:30:41;;;;;;;15.07;10.02;;;15.20;98.00;;;;;;5090135;28;20111;-73
2022/10/13 09:33:12;;;;;;;17.67;11.20;;;15.20;98.10;;;;;;5091043;28;20122;-70
2022/10/13 09:35:44;;;;;;;15.65;9.43;;;15.30;98.00;;;;;;5090201;28;20035;-71
2022/10/13 09:38:17;;;;;;;14.85;9.95;;;15.40;98.00;;;;;;5092059;28;20060;-71
2022/10/13 09:40:54;;;;;;;18.15;10.02;;;15.50;98.10;;;;;;5090240;28;20035;-73
2022/10/13 09:43:46;;;;;;;14.98;10.43;;;15.60;97.90;;;;;;5086787;28;20027;-72
2022/10/13 09:46:25;;;;;;;17.40;10.35;;;15.70;98.00;;;;;;5084138;28;20113;-74
2022/10/13 09:48:55;;;;;;;15.52;10.88;;;15.70;97.80;;;;;;5090525;28;20078;-72
2022/10/13 09:51:33;;;;;;;13.80;9.20;;;15.80;97.80;;;;;;5089858;28;20043;-73
2022/10/13 09:53:59;;;;;;;13.93;9.50;;;15.90;97.70;;;;;;5091008;28;20039;-73
2022/10/13 09:56:38;;;;;;;14.30;10.10;;;16.00;97.50;;;;;;5090133;28;20028;-72
2022/10/13 09:59:13;;;;;;;14.80;10.32;;;16.10;97.50;;;;;;5079965;28;20036;-70
2022/10/13 10:01:43;;;;;;;17.58;11.35;;;16.20;97.50;;;;;;5071766;28;20028;-73
2022/10/13 10:04:15;;;;;;;13.25;9.65;;;16.20;97.40;;;;;;5078114;28;20031;-72
2022/10/13 10:06:42;;;;;;;12.80;9.57;;;16.30;97.40;;;;;;5089807;28;20117;-73
2022/10/13 10:09:32;;;;;;;15.80;11.40;;;16.40;97.40;;;;;;5090565;28;20414;-73
2022/10/13 10:11:59;;;;;;;15.93;10.38;;;16.50;97.30;;;;;;5085327;28;20135;-72
2022/10/13 10:14:25;;;;;;;20.35;12.13;;;16.60;97.30;;;;;;5089830;28;20036;-72
2022/10/13 10:17:11;;;;;;;16.00;11.07;;;16.70;97.20;;;;;;5088910;28;20028;-73
2022/10/13 10:19:53;;;;;;;15.63;10.98;;;16.70;97.00;;;;;;5090014;28;20033;-72
2022/10/13 10:22:30;;;;;;;17.10;11.70;;;16.80;97.00;;;;;;5091566;28;20471;-72
2022/10/13 10:25:04;;;;;;;15.38;11.23;;;16.80;96.90;;;;;;5090276;28;20043;-72
2022/10/13 10:27:36;;;;;;;;;;;16.90;96.80;;;;;;5091995;28;20069;-72
2022/10/13 10:30:14;;;;;;;16.92;11.35;;;17.00;97.00;;;;;;5085936;28;19909;-72
2022/10/13 10:32:59;;;;;;;15.23;11.32;;;17.00;96.80;;;;;;5089313;28;20048;-75
2022/10/13 10:35:33;;;;;;;;;;;17.00;96.70;;;;;;5102657;28;20096;-74
2022/10/13 10:38:08;;;;;;;15.38;11.23;;;17.00;96.80;;;;;;5102695;28;19911;-72
2022/10/13 10:40:49;;;;;;;15.75;11.63;;;17.00;96.80;;;;;;5084145;28;20024;-71
2022/10/13 10:43:43;;;;;;;14.43;11.20;;;17.00;96.70;;;;;;5090410;28;20123;-71
2022/10/13 10:46:28;;;;;;;13.48;10.68;;;17.10;96.70;;;;;;5086149;28;20020;-72
2022/10/13 10:49:01;;;;;;;16.10;11.63;;;17.10;96.60;;;;;;5086122;28;20130;-71
2022/10/13 10:51:36;;;;;;;14.48;11.65;;;17.10;96.50;;;;;;5083604;28;20070;-72
2022/10/13 10:54:29;;;;;;;16.60;10.32;;;17.10;96.50;;;;;;5084980;28;20040;-70
2022/10/13 10:57:14;;;;;;;17.50;11.57;;;17.10;96.50;;;;;;5081600;28;20039;-72
2022/10/13 10:59:45;;;;;;;;;;;17.20;96.50;;;;;;5088751;28;20020;-72
2022/10/13 11:02:32;;;;;;;16.35;11.02;;;17.20;96.60;;;;;;5099251;28;19918;-72
2022/10/13 11:04:59;;;;;;;16.80;11.15;;;17.10;96.50;;;;;;5093722;28;20031;-72
2022/10/13 11:07:25;;;;;;;21.45;12.55;;;17.20;96.50;;;;;;5098633;28;20031;-72
2022/10/13 11:09:50;;;;;;;16.17;11.80;;;17.20;96.50;;;;;;5092519;28;20016;-72
2022/10/13 11:12:19;;;;;;;18.35;11.25;;;17.20;96.50;;;;;;5097284;28;20031;-73
2022/10/13 11:14:46;;;;;;;14.48;10.25;;;17.30;96.50;;;;;;5097209;28;20040;-73
2022/10/13 11:17:17;;;;;;;15.10;10.77;;;17.30;96.40;;;;;;5093796;28;20035;-73
2022/10/13 11:19:45;;;;;;;14.90;11.45;;;17.40;96.50;;;;;;5090376;28;20047;-73
2022/10/13 11:22:19;;;;;;;14.93;10.20;;;17.40;96.50;;;;;;5106973;28;20034;-73
2022/10/13 11:24:50;;;;;;;16.17;10.85;;;17.50;96.60;;;;;;5103857;28;20032;-72
2022/10/13 11:27:42;;;;;;;13.15;9.93;;;17.50;96.60;;;;;;5099841;28;20115;-73
2022/10/13 11:30:41;;;;;;;14.30;10.32;;;17.60;96.60;;;;;;5102361;28;20059;-72
2022/10/13 11:33:35;;;;;;;17.10;11.40;;;17.70;96.60;;;;;;5079561;28;20048;-73
2022/10/13 11:36:38;;;;;;;17.65;11.23;;;17.70;96.40;;;;;;5084399;28;20040;-72
2022/10/13 11:39:26;;;;;;;20.50;11.13;;;17.80;96.40;;;;;;5108207;28;20067;-72
2022/10/13 11:42:11;;;;;;;18.27;11.63;;;17.90;96.20;;;;;;5093699;28;20024;-71
2022/10/13 11:44:54;;;;;;;14.00;10.50;;;17.90;96.10;;;;;;5110295;28;20040;-73
2022/10/13 11:47:59;;;;;;;15.75;10.10;;;17.90;96.10;;;;;;5092525;28;20028;-72
2022/10/13 11:50:43;;;;;;;14.77;10.55;;;17.90;96.00;;;;;;5102965;28;20035;-72
2022/10/13 11:53:19;;;;;;;21.30;11.90;;;17.90;95.90;;;;;;5102105;27;20047;-72
2022/10/13 11:55:56;;;;;;;18.25;11.38;;;17.90;95.90;;;;;;5103866;28;20031;-72
2022/10/13 11:58:26;;;;;;;15.05;9.88;;;18.00;95.90;;;;;;5092157;28;20024;-72
2022/10/13 12:00:58;;;;;;;15.50;10.80;;;18.00;95.80;;;;;;5092179;28;20032;-72
2022/10/13 12:03:33;;;;;;;17.02;10.63;;;18.10;95.90;;;;;;5089077;28;20028;-71
2022/10/13 12:06:06;;;;;;;14.82;10.20;;;18.20;95.60;;;;;;5092117;28;20024;-72
2022/10/13 12:08:34;;;;;;;16.38;9.10;;;18.30;95.40;;;;;;5098871;28;20027;-72
2022/10/13 12:11:06;;;;;;;13.93;9.43;;;18.30;95.20;;;;;;5090499;28;20074;-71
2022/10/13 12:13:32;;;;;;;14.00;9.35;;;18.40;95.10;;;;;;5091584;28;20153;-72
2022/10/13 12:16:05;;;;;;;11.65;8.43;;;18.40;94.80;;;;;;5093510;28;20071;-72
2022/10/13 12:18:34;;;;;;;12.45;8.18;;;18.50;94.70;;;;;;5087898;28;20054;-72
2022/10/13 12:21:22;;;;;;;11.77;8.05;;;18.50;94.40;;;;;;5096179;28;20019;-71
2022/10/13 12:23:50;;;;;;;14.63;9.63;;;18.50;94.30;;;;;;5103449;28;20032;-72
2022/10/13 12:26:21;;;;;;;14.60;9.65;;;18.60;94.30;;;;;;5101972;28;20068;-72
2022/10/13 12:29:01;;;;;;;15.57;9.50;;;18.50;94.20;;;;;;5097855;28;20459;-71
2022/10/13 12:31:29;;;;;;;16.95;8.05;;;18.50;94.10;;;;;;5098985;28;20040;-71
2022/10/13 12:34:02;;;;;;;13.05;8.30;;;18.60;94.20;;;;;;5100625;28;20040;-72
2022/10/13 12:36:30;;;;;;;13.07;8.07;;;18.60;94.20;;;;;;5090550;28;20051;-72
2022/10/13 12:39:03;;;;;;;14.63;8.38;;;18.60;94.20;;;;;;5097670;28;20035;-72
2022/10/13 12:41:37;;;;;;;13.48;8.15;;;18.60;94.10;;;;;;5112489;28;20560;-73
2022/10/13 12:44:04;;;;;;;13.63;8.45;;;18.70;94.20;;;;;;5084106;28;20042;-73
2022/10/13 12:46:40;;;;;;;12.95;8.93;;;18.70;94.00;;;;;;5090164;28;20020;-72
2022/10/13 12:49:28;;;;;;;10.98;8.13;;;18.70;93.80;;;;;;5092335;28;20059;-73
2022/10/13 12:52:08;;;;;;;13.00;7.75;;;18.80;93.90;;;;;;5091313;28;20028;-71
2022/10/13 12:54:38;;;;;;;10.52;6.65;;;18.80;93.80;;;;;;5092165;28;20032;-72
2022/10/13 12:57:33;;;;;;;12.23;7.53;;;18.80;93.40;;;;;;5100012;28;20130;-72
2022/10/13 12:59:59;;;;;;;10.57;6.43;;;18.80;93.30;;;;;;5101768;28;20645;-71